Time;durP1;ratioP1;P1;durP2;ratioP2;P2;SDS_P1;SDS_P2;PMS_P1;PMS_P2;Temp;Humidity;BMP_temperature;BMP_pressure;BME280_temperature;BME280_humidity;BME280_pressure;Samples;Min_cycle;Max_cycle;Signal;HPM_P1;HPM_P2
2023/04/15 00:01:21;;;;;;;;;;;;;;;5.96;69.46;101071.84;5079349;28;1932;-77
2023/04/15 00:03:48;;;;;;;;;;;;;;;5.94;69.50;101070.38;5080946;28;1887;-78
2023/04/15 00:06:15;;;;;;;;;;;;;;;5.90;69.61;101064.53;5062019;28;1932;-77
2023/04/15 00:08:41;;;;;;;;;;;;;;;5.88;69.56;101072.72;5061331;28;1982;-79
2023/04/15 00:11:08;;;;;;;;;;;;;;;5.86;69.71;101069.41;5077275;28;4896;-76
2023/04/15 00:13:34;;;;;;;;;;;;;;;5.85;69.79;101070.41;5060277;28;4374;-78
2023/04/15 00:16:01;;;;;;;;;;;;;;;5.89;69.76;101065.53;5076680;28;3245;-77
2023/04/15 00:18:28;;;;;;;;;;;;;;;5.89;69.51;101068.22;5080845;28;1862;-77
2023/04/15 00:20:54;;;;;;;;;;;;;;;5.84;69.46;101068.72;5079551;28;1676;-79
2023/04/15 00:23:21;;;;;;;;;;;;;;;5.85;69.50;101069.56;5060975;28;1736;-78
2023/04/15 00:25:48;;;;;;;;;;;;;;;5.84;69.59;101068.72;5058449;28;2034;-76
2023/04/15 00:28:15;;;;;;;;;;;;;;;5.83;69.59;101069.75;5077945;28;4077;-78
2023/04/15 00:30:41;;;;;;;;;;;;;;;5.82;69.71;101070.72;5060596;28;2152;-78
2023/04/15 00:33:08;;;;;;;;;;;;;;;5.83;69.66;101074.25;5081192;28;1795;-78
2023/04/15 00:35:35;;;;;;;;;;;;;;;5.82;69.57;101075.25;5077373;28;1780;-77
2023/04/15 00:38:02;;;;;;;;;;;;;;;5.82;69.54;101078.75;5061918;28;2125;-78
2023/04/15 00:40:28;;;;;;;;;;;;;;;5.80;69.56;101082.63;5081236;28;1699;-78
2023/04/15 00:42:55;;;;;;;;;;;;;;;5.79;69.60;101075.59;5077222;28;2120;-78
2023/04/15 00:45:21;;;;;;;;;;;;;;;5.80;69.78;101074.63;5078998;28;1792;-78
2023/04/15 00:47:48;;;;;;;;;;;;;;;5.79;69.57;101075.59;5078168;28;1795;-78
2023/04/15 00:50:14;;;;;;;;;;;;;;;5.79;69.84;101075.59;5078377;28;1906;-77
2023/04/15 00:52:41;;;;;;;;;;;;;;;5.79;69.75;101078.28;5062018;28;2031;-77
2023/04/15 00:55:07;;;;;;;;;;;;;;;5.78;69.73;101071.28;5063489;28;1713;-78
2023/04/15 00:57:34;;;;;;;;;;;;;;;5.77;69.75;101081.13;5064832;28;1699;-78
2023/04/15 01:00:01;;;;;;;;;;;;;;;5.77;69.60;101085.66;5081696;28;1710;-78
2023/04/15 01:02:27;;;;;;;;;;;;;;;5.77;69.47;101078.47;5066300;28;2054;-77
2023/04/15 01:04:54;;;;;;;;;;;;;;;5.77;69.44;101081.13;5082539;28;1939;-77
2023/04/15 01:07:21;;;;;;;;;;;;;;;5.75;69.75;101076.97;5064330;28;2161;-78
2023/04/15 01:09:48;;;;;;;;;;;;;;;5.73;69.58;101076.31;5080535;28;2057;-77
2023/04/15 01:12:15;;;;;;;;;;;;;;;5.73;69.51;101077.13;5083041;28;2069;-77
2023/04/15 01:14:41;;;;;;;;;;;;;;;5.74;69.57;101084.16;5080497;28;4699;-78
2023/04/15 01:17:08;;;;;;;;;;;;;;;5.73;69.75;101081.66;5066189;28;4353;-78
2023/04/15 01:19:35;;;;;;;;;;;;;;;5.72;69.76;101080.00;5066080;28;1637;-76
2023/04/15 01:22:02;;;;;;;;;;;;;;;5.71;69.59;101081.84;5066258;28;1925;-78
2023/04/15 01:24:28;;;;;;;;;;;;;;;5.73;69.50;101089.66;5064778;28;2012;-76
2023/04/15 01:26:55;;;;;;;;;;;;;;;5.72;69.87;101086.16;5051342;28;2067;-77
2023/04/15 01:29:22;;;;;;;;;;;;;;;5.70;69.70;101086.34;5058108;28;1670;-77
2023/04/15 01:31:49;;;;;;;;;;;;;;;5.70;69.58;101083.66;5054142;28;1996;-79
2023/04/15 01:34:15;;;;;;;;;;;;;;;5.69;69.64;101084.69;5059476;28;3863;-78
2023/04/15 01:36:42;;;;;;;;;;;;;;;5.69;69.45;101081.19;5063536;28;1710;-77
2023/04/15 01:39:08;;;;;;;;;;;;;;;5.67;69.51;101081.34;5049995;28;2106;-78
2023/04/15 01:41:35;;;;;;;;;;;;;;;5.67;69.45;101084.00;5069303;28;2141;-78
2023/04/15 01:44:02;;;;;;;;;;;;;;;5.66;69.59;101079.69;5069558;28;2131;-78
2023/04/15 01:46:28;;;;;;;;;;;;;;;5.65;69.66;101086.03;5068673;28;1824;-78
2023/04/15 01:48:55;;;;;;;;;;;;;;;5.65;69.74;101086.03;5073143;28;1691;-77
2023/04/15 01:51:22;;;;;;;;;;;;;;;5.65;69.50;101085.22;5064270;28;1950;-77
2023/04/15 01:53:49;;;;;;;;;;;;;;;5.66;69.59;101086.88;5070078;28;2037;-78
2023/04/15 01:56:15;;;;;;;;;;;;;;;5.65;69.67;101085.22;5072905;28;1715;-77
2023/04/15 01:58:42;;;;;;;;;;;;;;;5.63;69.65;101089.91;5061725;28;2346;-77
2023/04/15 02:01:10;;;;;;;;;;;;;;;5.63;69.48;101087.22;5072533;28;1975;-77
2023/04/15 02:03:37;;;;;;;;;;;;;;;5.64;69.64;101095.06;5075324;28;1680;-77
2023/04/15 02:06:05;;;;;;;;;;;;;;;5.63;69.63;101098.75;5080279;28;1659;-78
2023/04/15 02:08:31;;;;;;;;;;;;;;;5.62;69.53;101102.44;5051019;28;2111;-78
2023/04/15 02:10:58;;;;;;;;;;;;;;;5.61;69.62;101099.91;5071859;28;1910;-76
2023/04/15 02:13:24;;;;;;;;;;;;;;;5.59;69.68;101089.41;5051312;28;1798;-78
2023/04/15 02:15:51;;;;;;;;;;;;;;;5.60;69.68;101103.59;5064601;28;1881;-77
2023/04/15 02:18:17;;;;;;;;;;;;;;;5.60;69.77;101096.41;5052959;28;1705;-76
2023/04/15 02:20:45;;;;;;;;;;;;;;;5.68;69.12;101099.06;5080811;28;1575;-78
2023/04/15 02:23:12;;;;;;;;;;;;;;;5.61;69.52;101100.75;5055708;28;4837;-78
2023/04/15 02:25:38;;;;;;;;;;;;;;;5.58;69.49;101101.09;5070775;28;2009;-78
2023/04/15 02:28:06;;;;;;;;;;;;;;;5.57;69.71;101094.09;5063077;28;3601;-76
2023/04/15 02:30:32;;;;;;;;;;;;;;;5.59;69.42;101102.78;5073409;28;2132;-77
2023/04/15 02:32:59;;;;;;;;;;;;;;;5.57;69.72;101106.63;5069890;28;1693;-76
2023/04/15 02:35:25;;;;;;;;;;;;;;;5.55;69.42;101100.63;5080459;28;1993;-76
2023/04/15 02:37:52;;;;;;;;;;;;;;;5.55;69.60;101106.78;5043676;28;2061;-77
2023/04/15 02:40:18;;;;;;;;;;;;;;;5.54;69.48;101107.81;5068627;28;3852;-76
2023/04/15 02:42:45;;;;;;;;;;;;;;;5.60;69.44;101108.94;5068150;28;1912;-76
2023/04/15 02:45:12;;;;;;;;;;;;;;;5.58;69.49;101103.75;5055297;28;2014;-79
2023/04/15 02:47:40;;;;;;;;;;;;;;;5.55;69.60;101106.78;5069156;28;1953;-78
2023/04/15 02:50:06;;;;;;;;;;;;;;;5.55;69.55;101111.31;5071911;28;1976;-78
2023/04/15 02:52:33;;;;;;;;;;;;;;;5.52;69.41;101108.97;5059330;28;1749;-79
2023/04/15 02:55:01;;;;;;;;;;;;;;;5.54;69.48;101112.31;5060192;28;1993;-78
2023/04/15 02:57:28;;;;;;;;;;;;;;;5.52;69.40;101101.78;5069247;28;1708;-78
2023/04/15 02:59:55;;;;;;;;;;;;;;;5.51;69.67;101110.00;5070162;28;1981;-78
2023/04/15 03:02:21;;;;;;;;;;;;;;;5.51;69.38;101110.00;5053116;28;2009;-78
2023/04/15 03:04:48;;;;;;;;;;;;;;;5.52;69.50;101112.47;5069235;28;1680;-78
2023/04/15 03:07:14;;;;;;;;;;;;;;;5.50;69.55;101114.50;5072252;28;2045;-78
2023/04/15 03:09:41;;;;;;;;;;;;;;;5.49;69.51;101114.66;5070288;28;1804;-79
2023/04/15 03:12:08;;;;;;;;;;;;;;;5.49;69.76;101114.66;5067068;28;2014;-77
2023/04/15 03:14:34;;;;;;;;;;;;;;;5.49;69.68;101120.00;5050835;28;1671;-77
2023/04/15 03:17:01;;;;;;;;;;;;;;;5.48;69.58;101111.16;5067852;28;1780;-79
2023/04/15 03:19:27;;;;;;;;;;;;;;;5.48;69.26;101116.50;5070440;28;1746;-76
2023/04/15 03:21:54;;;;;;;;;;;;;;;5.46;69.46;101124.69;5077720;28;1719;-79
2023/04/15 03:24:21;;;;;;;;;;;;;;;5.50;69.65;101121.66;5061333;28;1801;-76
2023/04/15 03:26:47;;;;;;;;;;;;;;;5.48;69.35;101124.53;5069096;28;1794;-78
2023/04/15 03:29:14;;;;;;;;;;;;;;;5.52;69.28;101120.50;5072326;28;1811;-77
2023/04/15 03:31:40;;;;;;;;;;;;;;;5.49;69.17;101122.69;5068463;28;4755;-78
2023/04/15 03:34:07;;;;;;;;;;;;;;;5.45;69.57;101124.88;5051770;28;3007;-78
2023/04/15 03:36:34;;;;;;;;;;;;;;;5.44;69.45;101124.03;5066476;28;3026;-76
2023/04/15 03:39:01;;;;;;;;;;;;;;;5.43;69.26;101119.69;5070400;28;2117;-77
2023/04/15 03:41:28;;;;;;;;;;;;;;;5.43;69.48;101124.19;5066745;28;1804;-78
2023/04/15 03:43:55;;;;;;;;;;;;;;;5.42;69.56;101119.88;5069879;28;1998;-78
2023/04/15 03:46:21;;;;;;;;;;;;;;;5.42;69.58;101123.38;5050582;28;1961;-78
2023/04/15 03:48:48;;;;;;;;;;;;;;;5.42;69.37;101127.88;5067603;28;3794;-79
2023/04/15 03:51:14;;;;;;;;;;;;;;;5.39;69.57;101126.38;5071792;28;1979;-79
2023/04/15 03:53:41;;;;;;;;;;;;;;;5.40;69.53;101124.53;5076679;28;1912;-78
2023/04/15 03:56:08;;;;;;;;;;;;;;;5.41;69.56;101127.06;5046769;28;1634;-78
2023/04/15 03:58:35;;;;;;;;;;;;;;;5.40;69.38;101132.56;5057931;28;2016;-78
2023/04/15 04:01:01;;;;;;;;;;;;;;;5.39;69.51;101134.41;5057637;28;2008;-80
2023/04/15 04:03:28;;;;;;;;;;;;;;;5.39;69.56;101144.25;5072570;28;1679;-79
2023/04/15 04:05:55;;;;;;;;;;;;;;;5.38;69.42;101145.25;5061344;28;1979;-78
2023/04/15 04:08:21;;;;;;;;;;;;;;;5.41;69.30;101139.56;5050057;28;1985;-79
2023/04/15 04:10:48;;;;;;;;;;;;;;;5.41;69.41;101147.56;5061219;28;1909;-78
2023/04/15 04:13:14;;;;;;;;;;;;;;;5.38;69.46;101153.25;5071534;28;1697;-79
2023/04/15 04:15:41;;;;;;;;;;;;;;;5.36;69.41;101148.09;5069736;28;1954;-78
2023/04/15 04:18:08;;;;;;;;;;;;;;;5.39;69.29;101155.78;5065396;28;2218;-78
2023/04/15 04:20:34;;;;;;;;;;;;;;;5.36;69.41;101156.13;5067900;28;2033;-78
2023/04/15 04:23:01;;;;;;;;;;;;;;;5.35;69.56;101153.59;5075502;28;1847;-79
2023/04/15 04:25:27;;;;;;;;;;;;;;;5.36;69.41;101158.78;5048147;28;1793;-77
2023/04/15 04:27:54;;;;;;;;;;;;;;;5.33;69.31;101155.63;5050075;28;1683;-78
2023/04/15 04:30:21;;;;;;;;;;;;;;;5.34;69.56;101159.97;5054978;28;2161;-77
2023/04/15 04:32:47;;;;;;;;;;;;;;;5.33;69.54;101160.97;5052898;28;1874;-79
2023/04/15 04:35:14;;;;;;;;;;;;;;;5.33;69.54;101163.66;5053631;28;1771;-79
2023/04/15 04:37:40;;;;;;;;;;;;;;;5.32;69.61;101154.78;5049531;28;1852;-77
2023/04/15 04:40:08;;;;;;;;;;;;;;;5.31;69.54;101169.16;5049751;28;4848;-77
2023/04/15 04:42:35;;;;;;;;;;;;;;;5.31;69.61;101163.81;5048814;28;2998;-77
2023/04/15 04:45:01;;;;;;;;;;;;;;;5.33;69.63;101167.16;5050185;28;1822;-77
2023/04/15 04:47:28;;;;;;;;;;;;;;;5.35;69.36;101178.47;5048766;28;2991;-78
2023/04/15 04:49:55;;;;;;;;;;;;;;;5.31;69.39;101169.16;5050571;28;1657;-77
2023/04/15 04:52:24;;;;;;;;;;;;;;;5.30;69.38;101170.16;5073739;28;1914;-78
2023/04/15 04:54:51;;;;;;;;;;;;;;;5.28;69.51;101174.81;5067035;28;2061;-75
2023/04/15 04:57:17;;;;;;;;;;;;;;;5.29;69.55;101167.63;5057494;28;1784;-77
2023/04/15 04:59:44;;;;;;;;;;;;;;;5.29;69.32;101171.13;5060096;28;3834;-75
2023/04/15 05:02:11;;;;;;;;;;;;;;;5.29;69.52;101168.47;5056657;28;2196;-78
2023/04/15 05:04:37;;;;;;;;;;;;;;;5.29;69.53;101176.47;5051067;28;1659;-78
2023/04/15 05:07:04;;;;;;;;;;;;;;;5.28;69.39;101176.66;5049862;28;1828;-78
2023/04/15 05:09:32;;;;;;;;;;;;;;;5.29;69.28;101181.00;5059862;28;1763;-79
2023/04/15 05:11:58;;;;;;;;;;;;;;;5.27;69.55;101180.34;5062854;28;1961;-78
2023/04/15 05:14:25;;;;;;;;;;;;;;;5.30;69.40;101183.50;5059792;28;1853;-78
2023/04/15 05:16:52;;;;;;;;;;;;;;;5.27;69.37;101178.50;5056763;28;2047;-79
2023/04/15 05:19:18;;;;;;;;;;;;;;;5.28;69.29;101185.50;5060023;28;2101;-76
2023/04/15 05:21:45;;;;;;;;;;;;;;;5.25;69.39;101185.84;5061477;28;2003;-80
2023/04/15 05:24:11;;;;;;;;;;;;;;;5.24;69.30;101189.53;5061922;28;1650;-79
2023/04/15 05:26:38;;;;;;;;;;;;;;;5.29;69.46;101186.34;5060098;28;2100;-77
2023/04/15 05:29:04;;;;;;;;;;;;;;;5.27;69.34;101188.38;5077423;28;1758;-77
2023/04/15 05:31:31;;;;;;;;;;;;;;;5.28;69.27;101196.19;5056060;28;2093;-80
2023/04/15 05:33:57;;;;;;;;;;;;;;;5.24;69.32;101192.22;5061600;28;1652;-77
2023/04/15 05:36:24;;;;;;;;;;;;;;;5.22;69.39;101202.22;5060126;28;2094;-78
2023/04/15 05:38:51;;;;;;;;;;;;;;;5.23;69.27;101201.19;5062105;28;1749;-79
2023/04/15 05:41:18;;;;;;;;;;;;;;;5.23;69.22;101201.19;5057315;28;5047;-78
2023/04/15 05:43:44;;;;;;;;;;;;;;;5.21;69.35;101204.06;5062192;28;4947;-78
2023/04/15 05:46:11;;;;;;;;;;;;;;;5.21;69.34;101201.38;5056355;28;2059;-77
2023/04/15 05:48:37;;;;;;;;;;;;;;;5.23;69.28;101201.19;5061422;28;4298;-77
2023/04/15 05:51:04;;;;;;;;;;;;;;;5.21;69.25;101198.72;5058286;28;1980;-78
2023/04/15 05:53:30;;;;;;;;;;;;;;;5.20;69.27;101199.69;5051810;28;1860;-76
2023/04/15 05:55:57;;;;;;;;;;;;;;;5.19;69.43;101203.38;5055097;28;1846;-78
2023/04/15 05:58:23;;;;;;;;;;;;;;;5.20;69.34;101206.88;5057677;28;4018;-77
2023/04/15 06:00:50;;;;;;;;;;;;;;;5.20;69.52;101210.38;5060508;28;2138;-78
2023/04/15 06:03:17;;;;;;;;;;;;;;;5.21;69.29;101208.56;5077029;28;1777;-77
2023/04/15 06:05:44;;;;;;;;;;;;;;;5.21;69.09;101216.59;5054478;28;2258;-78
2023/04/15 06:08:13;;;;;;;;;;;;;;;5.18;69.37;101211.56;5060638;28;1706;-78
2023/04/15 06:10:39;;;;;;;;;;;;;;;5.19;69.42;101214.06;5057550;28;2607;-77
2023/04/15 06:13:06;;;;;;;;;;;;;;;5.22;69.17;101218.25;5061148;28;2628;-78
2023/04/15 06:15:32;;;;;;;;;;;;;;;5.19;69.40;101226.59;5061596;28;2176;-79
2023/04/15 06:17:59;;;;;;;;;;;;;;;5.17;69.39;101226.75;5062427;28;1548;-76
2023/04/15 06:20:26;;;;;;;;;;;;;;;5.16;69.24;101230.41;5059853;28;2204;-79
2023/04/15 06:22:53;;;;;;;;;;;;;;;5.17;69.32;101234.75;5062951;28;1167;-80
2023/04/15 06:25:19;;;;;;;;;;;;;;;5.15;69.37;101236.78;5025897;28;1523689;-76
2023/04/15 06:27:46;;;;;;;;;;;;;;;5.18;69.30;101220.41;5079041;28;2066;-76
2023/04/15 06:30:12;;;;;;;;;;;;;;;5.16;69.39;101234.94;5063945;28;1823;-77
2023/04/15 06:32:39;;;;;;;;;;;;;;;5.16;69.40;101222.41;5081587;28;1975;-76
2023/04/15 06:35:05;;;;;;;;;;;;;;;5.17;69.24;101237.41;5081419;28;1997;-78
2023/04/15 06:37:32;;;;;;;;;;;;;;;5.15;69.20;101235.94;5065693;28;3549;-77
2023/04/15 06:39:58;;;;;;;;;;;;;;;5.18;69.16;101243.63;5080243;28;3878;-78
2023/04/15 06:42:25;;;;;;;;;;;;;;;5.15;69.13;101244.78;5054322;28;2629;-75
2023/04/15 06:44:52;;;;;;;;;;;;;;;5.13;69.45;101252.13;5070994;28;1694;-77
2023/04/15 06:47:18;;;;;;;;;;;;;;;5.14;69.22;101252.94;5079881;28;4303;-77
2023/04/15 06:49:45;;;;;;;;;;;;;;;5.13;69.41;101259.31;5081524;28;4382;-77
2023/04/15 06:52:11;;;;;;;;;;;;;;;5.14;69.31;101263.63;5080786;28;1918;-77
2023/04/15 06:54:38;;;;;;;;;;;;;;;5.15;69.07;101259.97;5079180;28;3389;-76
2023/04/15 06:57:04;;;;;;;;;;;;;;;5.16;69.09;101267.81;5062794;28;2547;-79
2023/04/15 06:59:31;;;;;;;;;;;;;;;5.15;69.20;101263.47;5082345;28;2843;-77
2023/04/15 07:01:58;;;;;;;;;;;;;;;5.17;69.06;101260.63;5080801;28;2238;-76
2023/04/15 07:04:24;;;;;;;;;;;;;;;5.13;69.16;101268.16;5066199;28;2200;-75
2023/04/15 07:06:51;;;;;;;;;;;;;;;5.13;69.24;101268.16;5064459;28;2168;-81
2023/04/15 07:09:17;;;;;;;;;;;;;;;5.15;69.27;101273.34;5081265;28;2262;-78
2023/04/15 07:11:44;;;;;;;;;;;;;;;5.13;69.20;101272.66;5064297;28;2806;-79
2023/04/15 07:14:10;;;;;;;;;;;;;;;5.12;69.17;101285.19;5083661;28;1711;-80
2023/04/15 07:16:37;;;;;;;;;;;;;;;5.11;69.24;101285.34;5081350;28;1282;-77
2023/04/15 07:19:03;;;;;;;;;;;;;;;5.12;69.25;101287.84;5066215;28;1289;-79
2023/04/15 07:21:30;;;;;;;;;;;;;;;5.10;69.34;101295.19;5066099;28;1857;-80
2023/04/15 07:23:57;;;;;;;;;;;;;;;5.08;69.35;101291.84;5082198;28;1214;-79
2023/04/15 07:26:24;;;;;;;;;;;;;;;5.10;69.29;101289.84;5065204;28;1612;-78
2023/04/15 07:28:51;;;;;;;;;;;;;;;5.08;69.34;101291.84;5078072;28;3771;-77
2023/04/15 07:31:17;;;;;;;;;;;;;;;5.08;69.33;101305.19;5079445;28;2903;-79
2023/04/15 07:33:43;;;;;;;;;;;;;;;5.09;69.38;101292.66;5080349;28;1525;-78
2023/04/15 07:36:10;;;;;;;;;;;;;;;5.08;69.22;101294.50;5063772;28;2658;-78
2023/04/15 07:38:37;;;;;;;;;;;;;;;5.08;69.32;101296.34;5059720;28;1850;-76
2023/04/15 07:41:03;;;;;;;;;;;;;;;5.08;69.30;101299.00;5064096;28;2036;-77
2023/04/15 07:43:30;;;;;;;;;;;;;;;5.08;69.25;101304.34;5080429;28;1842;-77
2023/04/15 07:45:56;;;;;;;;;;;;;;;5.07;69.23;101306.19;5081458;28;1824;-77
2023/04/15 07:48:23;;;;;;;;;;;;;;;5.07;69.13;101310.72;5077094;28;1043;-78
2023/04/15 07:50:50;;;;;;;;;;;;;;;5.08;69.23;101299.84;5079155;28;1739;-75
2023/04/15 07:53:16;;;;;;;;;;;;;;;5.07;69.28;101316.03;5063212;28;1917;-76
2023/04/15 07:55:43;;;;;;;;;;;;;;;5.07;69.32;101308.03;5063235;28;1955;-77
2023/04/15 07:58:09;;;;;;;;;;;;;;;5.06;69.08;101312.53;5078984;28;4805;-77
2023/04/15 08:00:37;;;;;;;;;;;;;;;5.06;69.44;101309.88;5063519;28;1966;-78
2023/04/15 08:03:03;;;;;;;;;;;;;;;5.06;69.36;101314.34;5064778;28;3238;-77
2023/04/15 08:05:30;;;;;;;;;;;;;;;5.07;69.25;101316.03;5082696;28;2042;-77
2023/04/15 08:07:57;;;;;;;;;;;;;;;5.07;69.21;101321.38;5081254;28;1928;-77
2023/04/15 08:10:24;;;;;;;;;;;;;;;5.04;69.33;101317.22;5063515;28;1956;-75
2023/04/15 08:12:53;;;;;;;;;;;;;;;5.10;69.10;101313.88;5082305;28;1902;-77
2023/04/15 08:15:19;;;;;;;;;;;;;;;5.07;69.13;101318.72;5064685;28;3381;-77
2023/04/15 08:17:46;;;;;;;;;;;;;;;5.06;69.36;101317.03;5080983;28;1825;-78
2023/04/15 08:20:13;;;;;;;;;;;;;;;5.05;69.19;101318.88;5064220;28;3906;-77
2023/04/15 08:22:40;;;;;;;;;;;;;;;5.06;69.24;101323.22;5081280;28;1911;-77
2023/04/15 08:25:06;;;;;;;;;;;;;;;5.06;69.25;101322.38;5081585;28;1898;-77
2023/04/15 08:27:33;;;;;;;;;;;;;;;5.05;69.19;101318.88;5078570;28;1550;-77
2023/04/15 08:29:59;;;;;;;;;;;;;;;5.09;69.08;101330.91;5082162;28;1258;-77
2023/04/15 08:32:26;;;;;;;;;;;;;;;5.05;69.25;101332.22;5080688;28;1995;-78
2023/04/15 08:34:53;;;;;;;;;;;;;;;5.05;69.28;101336.72;5063349;28;1263;-76
2023/04/15 08:37:19;;;;;;;;;;;;;;;5.03;69.16;101330.72;5071330;28;1787;-78
2023/04/15 08:39:46;;;;;;;;;;;;;;;5.06;69.33;101327.72;5080369;28;2062;-77
2023/04/15 08:42:12;;;;;;;;;;;;;;;5.04;69.24;101329.72;5078395;28;2061;-78
2023/04/15 08:44:39;;;;;;;;;;;;;;;5.04;69.18;101337.75;5073999;28;1624;-76
2023/04/15 08:47:05;;;;;;;;;;;;;;;5.04;69.24;101341.25;5064270;28;1967;-78
2023/04/15 08:49:32;;;;;;;;;;;;;;;5.04;69.13;101341.25;5072316;28;1654;-78
2023/04/15 08:51:59;;;;;;;;;;;;;;;5.08;69.06;101341.75;5073751;28;2017;-78
2023/04/15 08:54:25;;;;;;;;;;;;;;;5.03;69.02;101352.94;5048862;28;1984;-78
2023/04/15 08:56:52;;;;;;;;;;;;;;;5.02;69.23;101348.56;5054962;28;2294;-77
2023/04/15 08:59:20;;;;;;;;;;;;;;;5.00;69.21;101348.75;5042829;28;4314;-76
2023/04/15 09:01:46;;;;;;;;;;;;;;;5.02;69.28;101348.56;5055331;28;4464;-76
2023/04/15 09:04:13;;;;;;;;;;;;;;;5.05;69.06;101352.75;5074865;28;3151;-77
2023/04/15 09:06:39;;;;;;;;;;;;;;;5.01;69.30;101353.06;5068487;28;1963;-76
2023/04/15 09:09:06;;;;;;;;;;;;;;;5.01;69.21;101346.91;5070933;28;1721;-77
2023/04/15 09:11:33;;;;;;;;;;;;;;;5.01;69.12;101347.75;5074712;28;1960;-77
2023/04/15 09:13:59;;;;;;;;;;;;;;;5.03;69.15;101350.25;5081426;28;1113;-77
2023/04/15 09:16:26;;;;;;;;;;;;;;;5.00;69.23;101351.41;5064625;28;3207;-77
2023/04/15 09:18:53;;;;;;;;;;;;;;;5.04;69.17;101353.75;5084386;28;1599;-78
2023/04/15 09:21:19;;;;;;;;;;;;;;;5.01;69.17;101354.91;5064273;28;4052;-77
2023/04/15 09:23:46;;;;;;;;;;;;;;;5.01;69.34;101361.09;5084779;28;1450;-77
2023/04/15 09:26:12;;;;;;;;;;;;;;;5.00;69.28;101363.94;5065688;28;2200;-78
2023/04/15 09:28:39;;;;;;;;;;;;;;;5.01;69.37;101357.59;5084055;28;2707;-76
2023/04/15 09:31:06;;;;;;;;;;;;;;;5.02;69.15;101359.25;5080028;28;2266;-77
2023/04/15 09:33:33;;;;;;;;;;;;;;;5.01;69.17;101357.59;5067747;28;1910;-77
2023/04/15 09:35:59;;;;;;;;;;;;;;;5.00;69.15;101363.94;5065528;28;2099;-77
2023/04/15 09:38:26;;;;;;;;;;;;;;;4.99;69.26;101367.59;5066417;28;2193;-77
2023/04/15 09:40:52;;;;;;;;;;;;;;;5.00;69.13;101372.78;5082272;28;2754;-77
2023/04/15 09:43:19;;;;;;;;;;;;;;;5.00;69.32;101370.09;5063701;28;2338;-77
2023/04/15 09:45:46;;;;;;;;;;;;;;;5.01;69.10;101369.09;5076290;28;1967;-78
2023/04/15 09:48:12;;;;;;;;;;;;;;;5.00;69.08;101375.44;5063764;28;1990;-77
2023/04/15 09:50:40;;;;;;;;;;;;;;;4.99;69.20;101370.25;5071550;28;2137;-80
2023/04/15 09:53:06;;;;;;;;;;;;;;;5.01;69.14;101371.78;5077092;28;1977;-79
2023/04/15 09:55:32;;;;;;;;;;;;;;;5.02;69.09;101372.59;5054780;28;1850;-77
2023/04/15 09:57:59;;;;;;;;;;;;;;;5.00;69.15;101372.78;5068739;28;1904;-79
2023/04/15 10:00:26;;;;;;;;;;;;;;;4.99;69.02;101373.75;5053521;28;2029;-78
2023/04/15 10:02:53;;;;;;;;;;;;;;;5.01;69.22;101384.28;5063315;28;4693;-78
2023/04/15 10:05:19;;;;;;;;;;;;;;;4.99;69.13;101381.75;5074536;28;4023;-79
2023/04/15 10:07:47;;;;;;;;;;;;;;;4.98;69.33;101377.44;5065220;28;2119;-79
2023/04/15 10:10:13;;;;;;;;;;;;;;;5.00;69.28;101382.63;5079646;28;1978;-80
2023/04/15 10:12:40;;;;;;;;;;;;;;;4.99;69.15;101381.75;5065001;28;1988;-77
2023/04/15 10:15:06;;;;;;;;;;;;;;;4.99;69.23;101387.09;5083523;28;2007;-80
2023/04/15 10:17:34;;;;;;;;;;;;;;;4.98;69.30;101382.78;5082107;28;2339;-79
2023/04/15 10:20:00;;;;;;;;;;;;;;;4.98;69.10;101385.44;5082018;28;3613;-78
2023/04/15 10:22:27;;;;;;;;;;;;;;;4.97;69.14;101383.78;5064660;28;2135;-78
2023/04/15 10:24:54;;;;;;;;;;;;;;;4.99;69.17;101388.94;5080412;28;2213;-79
2023/04/15 10:27:20;;;;;;;;;;;;;;;4.98;69.21;101385.44;5064064;28;1957;-78
2023/04/15 10:29:47;;;;;;;;;;;;;;;4.98;69.34;101390.78;5079320;28;985;-79
2023/04/15 10:32:14;;;;;;;;;;;;;;;4.97;69.25;101389.13;5064504;28;2237;-79
2023/04/15 10:34:40;;;;;;;;;;;;;;;4.98;69.16;101392.63;5063622;28;1934;-79
2023/04/15 10:37:07;;;;;;;;;;;;;;;4.97;69.14;101394.47;5075173;28;1904;-78
2023/04/15 10:39:33;;;;;;;;;;;;;;;4.96;69.18;101391.94;5067747;28;1568;-78
2023/04/15 10:42:00;;;;;;;;;;;;;;;4.98;69.08;101404.13;5067382;28;2022;-78
2023/04/15 10:44:27;;;;;;;;;;;;;;;4.98;69.18;101397.97;5070457;28;2084;-80
2023/04/15 10:46:53;;;;;;;;;;;;;;;4.98;69.13;101406.81;5069958;28;1577;-80
2023/04/15 10:49:20;;;;;;;;;;;;;;;4.98;69.19;101398.78;5067913;28;1785;-79
2023/04/15 10:51:46;;;;;;;;;;;;;;;4.99;69.21;101405.78;5067239;28;1616;-78
2023/04/15 10:54:13;;;;;;;;;;;;;;;4.99;69.13;101402.28;5065244;28;2016;-80
2023/04/15 10:56:40;;;;;;;;;;;;;;;4.98;69.20;101408.63;5052270;28;1598;-78
2023/04/15 10:59:06;;;;;;;;;;;;;;;4.99;69.18;101404.97;5048564;28;1682;-79
2023/04/15 11:01:33;;;;;;;;;;;;;;;4.98;69.22;101408.63;5069349;28;1697;-78
2023/04/15 11:03:59;;;;;;;;;;;;;;;4.99;69.15;101411.13;5052272;28;1559;-80
2023/04/15 11:06:26;;;;;;;;;;;;;;;5.00;69.10;101403.97;5049306;28;1574;-78
2023/04/15 11:08:53;;;;;;;;;;;;;;;5.00;69.04;101420.84;5060388;28;4710;-79
2023/04/15 11:11:19;;;;;;;;;;;;;;;5.00;69.08;101412.00;5062577;28;4333;-78
2023/04/15 11:13:46;;;;;;;;;;;;;;;5.01;69.17;101413.66;5068579;28;1910;-78
2023/04/15 11:16:12;;;;;;;;;;;;;;;5.01;69.12;101413.66;5044553;28;4136;-78
2023/04/15 11:18:39;;;;;;;;;;;;;;;5.00;69.17;101415.50;5070043;28;1573;-78
2023/04/15 11:21:05;;;;;;;;;;;;;;;5.01;69.16;101411.00;5066338;28;1549;-79
2023/04/15 11:23:32;;;;;;;;;;;;;;;5.01;69.06;101416.31;5064066;28;1599;-78
2023/04/15 11:25:58;;;;;;;;;;;;;;;5.01;69.07;101414.47;5080867;28;1782;-78
2023/04/15 11:28:25;;;;;;;;;;;;;;;5.03;69.04;101413.47;5081901;28;4945;-78
2023/04/15 11:30:52;;;;;;;;;;;;;;;5.03;68.83;101424.16;5062088;28;2815;-77
2023/04/15 11:33:19;;;;;;;;;;;;;;;5.02;69.01;101428.66;5049140;28;1917;-78
2023/04/15 11:35:45;;;;;;;;;;;;;;;5.03;69.02;101430.34;5062516;28;1712;-78
2023/04/15 11:38:12;;;;;;;;;;;;;;;5.03;69.05;101421.50;5065868;28;1658;-79
2023/04/15 11:40:38;;;;;;;;;;;;;;;5.03;69.30;101422.34;5047094;28;1666;-78
2023/04/15 11:43:05;;;;;;;;;;;;;;;5.02;69.17;101417.97;5062914;28;1856;-79
2023/04/15 11:45:32;;;;;;;;;;;;;;;5.04;69.01;101425.84;5071810;28;1565;-75
2023/04/15 11:47:58;;;;;;;;;;;;;;;5.04;69.13;101421.34;5073803;28;1524;-80
2023/04/15 11:50:25;;;;;;;;;;;;;;;5.05;69.58;101431.00;5043921;28;1698;-75
2023/04/15 11:52:51;;;;;;;;;;;;;;;5.05;69.06;101428.34;5045525;28;1967;-78
2023/04/15 11:55:18;;;;;;;;;;;;;;;5.06;69.04;101426.50;5063082;28;1742;-78
2023/04/15 11:57:45;;;;;;;;;;;;;;;5.06;68.89;101431.84;5044231;28;1897;-77
2023/04/15 12:00:12;;;;;;;;;;;;;;;5.06;69.13;101429.16;5049611;28;1674;-79
2023/04/15 12:02:38;;;;;;;;;;;;;;;5.05;69.00;101433.69;5061910;28;1841;-78
2023/04/15 12:05:05;;;;;;;;;;;;;;;5.06;69.08;101439.84;5044209;28;1606;-79
2023/04/15 12:07:32;;;;;;;;;;;;;;;5.07;69.08;101438.88;5052788;28;1867;-77
2023/04/15 12:09:58;;;;;;;;;;;;;;;5.08;69.01;101444.03;5060513;28;1758;-79
2023/04/15 12:12:25;;;;;;;;;;;;;;;5.07;69.04;101450.38;5065461;28;4995;-78
2023/04/15 12:14:51;;;;;;;;;;;;;;;5.08;69.03;101445.88;5051211;28;4212;-77
2023/04/15 12:17:18;;;;;;;;;;;;;;;5.08;68.93;101445.88;5072763;28;4383;-78
2023/04/15 12:19:45;;;;;;;;;;;;;;;5.09;69.02;101448.41;5061953;28;1361;-77
2023/04/15 12:22:11;;;;;;;;;;;;;;;5.09;68.92;101443.06;5076753;28;1017;-75
2023/04/15 12:24:38;;;;;;;;;;;;;;;5.09;69.02;101437.72;5081220;28;1485;-77
2023/04/15 12:27:04;;;;;;;;;;;;;;;5.09;69.07;101445.72;5062156;28;1219;-77
2023/04/15 12:29:31;;;;;;;;;;;;;;;5.10;69.04;101441.22;5076529;28;4514;-77
2023/04/15 12:31:58;;;;;;;;;;;;;;;5.09;69.00;101431.50;5079092;28;1152;-78
2023/04/15 12:34:24;;;;;;;;;;;;;;;5.11;69.15;101448.22;5081936;28;1969;-78
2023/04/15 12:36:51;;;;;;;;;;;;;;;5.12;69.12;101444.56;5061617;28;2651;-77
2023/04/15 12:39:17;;;;;;;;;;;;;;;5.10;68.93;101444.72;5065653;28;1607;-78
2023/04/15 12:41:44;;;;;;;;;;;;;;;5.12;69.00;101445.41;5077062;28;1763;-77
2023/04/15 12:44:10;;;;;;;;;;;;;;;5.12;69.17;101448.06;5058927;28;1646;-78
2023/04/15 12:46:37;;;;;;;;;;;;;;;5.13;69.04;101440.91;5081099;28;1019;-78
2023/04/15 12:49:04;;;;;;;;;;;;;;;5.13;69.03;101446.22;5057539;28;1543;-78
2023/04/15 12:51:31;;;;;;;;;;;;;;;5.13;68.99;101441.72;5080978;28;1579;-78
2023/04/15 12:53:58;;;;;;;;;;;;;;;5.14;68.99;101442.56;5084963;28;1975;-78